Time;durP1;ratioP1;P1;durP2;ratioP2;P2;SDS_P1;SDS_P2;PMS_P1;PMS_P2;Temp;Humidity;BMP_temperature;BMP_pressure;BME280_temperature;BME280_humidity;BME280_pressure;Samples;Min_cycle;Max_cycle;Signal;HPM_P1;HPM_P2
2022/09/18 00:00:43;;;;;;;;;5.75;4.50;;;;;13.55;95.81;101883.81;5013305;28;45921;-72
2022/09/18 00:03:09;;;;;;;;;5.00;5.00;;;;;13.51;96.36;101878.44;5008978;28;45976;-70
2022/09/18 00:05:36;;;;;;;;;7.00;6.00;;;;;13.47;96.06;101873.94;5025355;28;45571;-70
2022/09/18 00:08:01;;;;;;;;;7.00;5.67;;;;;13.41;96.74;101873.84;4990595;28;45477;-73
2022/09/18 00:10:27;;;;;;;;;4.00;4.00;;;;;13.41;96.98;101879.16;5001760;28;45582;-70
2022/09/18 00:12:52;;;;;;;;;3.67;3.67;;;;;13.39;96.67;101883.56;4989524;28;46445;-71
2022/09/18 00:15:18;;;;;;;;;9.50;4.00;;;;;13.32;97.17;101866.66;5005902;28;57561;-70
2022/09/18 00:17:43;;;;;;;;;6.25;5.50;;;;;13.27;97.35;101868.34;5013268;28;54990;-72
2022/09/18 00:20:08;;;;;;;;;7.00;5.00;;;;;13.26;97.65;101871.81;5010952;28;55464;-71
2022/09/18 00:22:34;;;;;;;;;6.50;6.00;;;;;13.27;98.01;101868.34;5015867;28;62195;-71
2022/09/18 00:24:59;;;;;;;;;10.50;6.75;;;;;13.25;98.03;101870.94;5020528;28;45530;-72
2022/09/18 00:27:25;;;;;;;;;7.25;5.75;;;;;13.21;98.26;101865.53;5017402;28;57147;-70
2022/09/18 00:29:50;;;;;;;;;5.00;4.00;;;;;13.16;99.12;101864.59;5007881;28;58808;-70
2022/09/18 00:32:15;;;;;;;;;6.00;5.00;;;;;13.13;99.72;101868.06;5003100;28;64135;-70
2022/09/18 00:34:41;;;;;;;;;5.00;5.00;;;;;13.10;100.00;101862.69;5007453;28;67186;-70
2022/09/18 00:37:06;;;;;;;;;4.50;4.50;;;;;13.09;99.54;101869.75;5012493;28;46461;-72
2022/09/18 00:39:32;;;;;;;;;8.75;5.00;;;;;13.07;99.89;101875.91;5010121;28;55632;-70
2022/09/18 00:41:57;;;;;;;;;6.00;4.67;;;;;13.04;100.00;101871.44;5010102;28;63399;-70
2022/09/18 00:44:36;;;;;;;;;6.25;5.50;;;;;13.01;100.00;101876.69;4994140;28;53028;-70
2022/09/18 00:47:10;;;;;;;;;6.25;5.00;;;;;12.99;100.00;101881.06;5006759;28;45547;-72
2022/09/18 00:50:07;;;;;;;;;5.75;5.00;;;;;12.96;100.00;101875.72;5011600;28;45512;-71
2022/09/18 00:52:47;;;;;;;;;4.00;4.00;;;;;12.89;100.00;101872.91;5016477;28;48487;-69
2022/09/18 00:55:13;;;;;;;;;6.00;5.00;;;;;12.88;100.00;101865.84;5005736;28;45785;-71
2022/09/18 00:57:46;;;;;;;;;5.50;5.50;;;;;12.83;100.00;101865.75;5026140;28;45511;-70
2022/09/18 01:00:13;;;;;;;;;7.25;4.25;;;;;12.85;100.00;101875.53;5011611;28;45522;-70
2022/09/18 01:02:39;;;;;;;;;5.00;4.00;;;;;12.85;100.00;101877.28;5009897;28;45945;-70
2022/09/18 01:05:06;;;;;;;;;5.50;5.25;;;;;12.83;100.00;101882.53;4996185;28;45731;-69
2022/09/18 01:07:43;;;;;;;;;9.33;3.00;;;;;12.78;100.00;101881.59;5006092;28;45455;-70
2022/09/18 01:11:04;;;;;;;;;5.00;5.00;;;;;12.68;100.00;101884.03;5002037;28;45551;-70
2022/09/18 01:14:20;;;;;;;;;6.00;4.00;;;;;12.61;100.00;101879.47;4917899;28;46096;-72
2022/09/18 01:17:03;;;;;;;;;5.67;3.67;;;;;12.62;100.00;101882.13;4905135;28;45905;-72
2022/09/18 01:19:51;;;;;;;;;6.00;3.00;;;;;12.64;100.00;101879.53;5000426;28;45913;-71
2022/09/18 01:22:55;;;;;;;;;9.00;3.33;;;;;12.67;100.00;101876.91;5002829;28;45574;-70
2022/09/18 01:25:32;;;;;;;;;5.00;5.00;;;;;12.66;100.00;101868.09;4977071;28;45913;-71
2022/09/18 01:28:00;;;;;;;;;5.00;4.00;;;;;12.72;100.00;101869.97;4998175;28;45549;-71
2022/09/18 01:30:25;;;;;;;;;5.75;4.00;;;;;12.72;100.00;101867.31;5006690;28;45639;-71
2022/09/18 01:33:05;;;;;;;;;3.67;3.67;;;;;12.74;100.00;101869.13;4989609;28;58987;-71
2022/09/18 01:35:48;;;;;;;;;4.00;3.00;;;;;12.77;100.00;101870.94;4991358;28;45748;-71
2022/09/18 01:38:28;;;;;;;;;3.50;3.50;;;;;12.76;100.00;101863.84;5005322;28;45549;-72
2022/09/18 01:41:05;;;;;;;;;5.00;5.00;;;;;12.77;100.00;101860.34;4996006;28;45751;-72
2022/09/18 01:43:31;;;;;;;;;5.00;3.00;;;;;12.77;100.00;101871.81;4991880;28;45920;-70
2022/09/18 01:45:59;;;;;;;;;4.00;3.67;;;;;12.78;100.00;101870.06;5023374;28;66720;-72
2022/09/18 01:48:27;;;;;;;;;4.00;4.00;;;;;12.82;100.00;101875.47;5029665;28;45483;-71
2022/09/18 01:50:58;;;;;;;;;3.33;3.33;;;;;12.78;100.00;101856.81;5026081;28;45353;-71
2022/09/18 01:53:29;;;;;;;;;6.00;5.00;;;;;12.83;100.00;101865.75;4999544;28;45423;-72
2022/09/18 01:56:00;;;;;;;;;5.00;5.00;;;;;12.81;100.00;101859.53;5027176;28;46049;-71
2022/09/18 01:58:27;;;;;;;;;4.67;4.33;;;;;12.80;100.00;101855.09;5007191;28;45488;-72
2022/09/18 02:00:54;;;;;;;;;5.67;4.00;;;;;12.83;100.00;101857.78;5000731;28;45824;-71
2022/09/18 02:03:26;;;;;;;;;7.00;5.00;;;;;12.79;100.00;101854.22;5017537;28;45780;-72
2022/09/18 02:05:55;;;;;;;;;6.00;5.67;;;;;12.82;100.00;101859.56;5029630;28;46687;-71
2022/09/18 02:08:32;;;;;;;;;4.00;4.00;;;;;12.83;100.00;101852.50;5025445;28;45504;-72
2022/09/18 02:11:01;;;;;;;;;3.67;3.67;;;;;12.78;100.00;101849.78;4984753;28;45523;-71
2022/09/18 02:13:31;;;;;;;;;3.00;3.00;;;;;12.80;100.00;101855.09;5005202;28;45532;-71
2022/09/18 02:16:02;;;;;;;;;6.00;4.00;;;;;12.79;100.00;101853.31;5011244;28;46668;-70
2022/09/18 02:18:33;;;;;;;;;7.67;4.00;;;;;12.79;100.00;101853.31;4992686;28;45498;-71
2022/09/18 02:20:59;;;;;;;;;5.00;3.67;;;;;12.78;100.00;101847.13;4995043;28;45823;-73
2022/09/18 02:23:27;;;;;;;;;5.00;2.00;;;;;12.75;100.00;101847.06;5006792;28;53624;-72
2022/09/18 02:25:57;;;;;;;;;4.75;3.50;;;;;12.76;100.00;101850.59;5007505;28;45752;-71
2022/09/18 02:28:24;;;;;;;;;3.67;3.00;;;;;12.76;100.00;101854.16;5017967;28;45862;-70
2022/09/18 02:30:50;;;;;;;;;2.00;2.00;;;;;12.75;100.00;101849.72;5008920;28;45561;-70
2022/09/18 02:33:42;;;;;;;;;3.00;3.00;;;;;12.76;100.00;101846.19;4999377;28;45629;-71
2022/09/18 02:36:35;;;;;;;;;3.67;3.00;;;;;12.76;100.00;101855.91;5018731;28;52074;-74
2022/09/18 02:39:07;;;;;;;;;5.25;2.50;;;;;12.74;100.00;101849.69;5011340;28;45771;-71
2022/09/18 02:42:04;;;;;;;;;3.00;3.00;;;;;12.71;100.00;101845.22;4993921;28;45487;-71
2022/09/18 02:44:42;;;;;;;;;2.00;2.00;;;;;12.74;100.00;101855.88;5013381;28;45780;-70
2022/09/18 02:47:23;;;;;;;;;2.67;2.67;;;;;12.71;100.00;101847.88;4993617;28;45847;-72
2022/09/18 02:49:54;;;;;;;;;2.33;2.33;;;;;12.73;100.00;101842.59;5008058;28;45469;-71
2022/09/18 02:52:24;;;;;;;;;2.33;2.33;;;;;12.69;100.00;101840.78;5014724;28;46033;-70
2022/09/18 02:54:57;;;;;;;;;2.00;2.00;;;;;12.71;100.00;101841.69;5008346;28;45403;-71
2022/09/18 02:57:33;;;;;;;;;2.00;2.00;;;;;12.74;100.00;101852.34;5006705;28;47315;-71
2022/09/18 03:00:00;;;;;;;;;1.67;1.67;;;;;12.71;100.00;101829.31;4993036;28;45887;-71
2022/09/18 03:02:25;;;;;;;;;3.00;1.67;;;;;12.75;100.00;101838.22;5001899;28;46483;-71
2022/09/18 03:04:51;;;;;;;;;3.00;1.00;;;;;12.75;100.00;101841.75;4994602;28;46319;-71
2022/09/18 03:07:20;;;;;;;;;2.00;2.00;;;;;12.72;100.00;101831.09;5016998;28;46259;-71
2022/09/18 03:09:45;;;;;;;;;1.67;1.67;;;;;12.73;100.00;101826.69;5011107;28;45499;-71
2022/09/18 03:12:11;;;;;;;;;2.67;2.67;;;;;12.72;100.00;101822.25;4996033;28;45768;-71
2022/09/18 03:14:37;;;;;;;;;1.00;1.00;;;;;12.68;100.00;101817.78;5003979;28;45432;-70
2022/09/18 03:17:02;;;;;;;;;2.00;2.00;;;;;12.71;100.00;101825.78;5007839;28;45891;-71
2022/09/18 03:19:28;;;;;;;;;3.00;2.00;;;;;12.67;100.00;101822.16;4988891;28;45849;-74
2022/09/18 03:21:53;;;;;;;;;4.00;3.00;;;;;12.62;100.00;101817.66;5007752;28;62351;-71
2022/09/18 03:24:19;;;;;;;;;2.00;2.00;;;;;12.63;100.00;101828.31;5012752;28;45524;-71
2022/09/18 03:26:45;;;;;;;;;3.00;3.00;;;;;12.58;100.00;101824.66;5014905;28;46642;-71
2022/09/18 03:29:12;;;;;;;;;2.00;2.00;;;;;12.59;100.00;101827.34;5017087;28;46379;-71
2022/09/18 03:31:37;;;;;;;;;5.00;3.00;;;;;12.57;100.00;101823.78;5007465;28;47276;-74
2022/09/18 03:34:03;;;;;;;;;2.33;2.33;;;;;12.52;100.00;101820.16;5010272;28;45445;-71
2022/09/18 03:36:28;;;;;;;;;3.00;3.00;;;;;12.53;100.00;101816.63;4999878;28;46053;-71
2022/09/18 03:38:54;;;;;;;;;3.00;3.00;;;;;12.52;100.00;101821.91;5009921;28;49571;-71
2022/09/18 03:41:21;;;;;;;;;4.00;2.67;;;;;12.50;100.00;101818.31;5002931;28;45591;-71
2022/09/18 03:43:46;;;;;;;;;4.00;2.50;;;;;12.49;100.00;101816.53;5006329;28;45464;-70
2022/09/18 03:46:12;;;;;;;;;4.25;2.25;;;;;12.45;100.00;101798.78;5009951;28;63733;-74
2022/09/18 03:48:37;;;;;;;;;3.00;3.00;;;;;12.47;100.00;101802.38;5009467;28;60625;-71
2022/09/18 03:51:02;;;;;;;;;2.75;2.75;;;;;12.42;100.00;101801.41;5009040;28;45524;-70
2022/09/18 03:53:28;;;;;;;;;5.50;2.50;;;;;12.44;100.00;101812.91;5009539;28;57863;-72
2022/09/18 03:55:53;;;;;;;;;2.00;2.00;;;;;12.38;100.00;101805.75;4997619;28;45604;-72
2022/09/18 03:58:18;;;;;;;;;2.00;2.00;;;;;12.35;100.00;101810.97;5013098;28;63312;-71
2022/09/18 04:00:44;;;;;;;;;4.50;2.50;;;;;12.37;100.00;101824.25;5010967;28;60757;-71
2022/09/18 04:03:09;;;;;;;;;2.67;2.67;;;;;12.35;100.00;101818.03;5024497;28;45866;-71
2022/09/18 04:05:35;;;;;;;;;3.67;3.00;;;;;12.30;100.00;101818.84;4999306;28;67154;-70
2022/09/18 04:08:00;;;;;;;;;8.00;4.50;;;;;12.32;100.00;101830.34;4994276;28;46676;-71
2022/09/18 04:10:26;;;;;;;;;3.00;3.00;;;;;12.31;100.00;101817.09;5015861;28;45632;-72
2022/09/18 04:12:51;;;;;;;;;6.50;4.00;;;;;12.30;100.00;101809.97;5013299;28;45619;-70
2022/09/18 04:15:18;;;;;;;;;3.33;3.00;;;;;12.27;100.00;101810.84;5008097;28;45503;-71
2022/09/18 04:17:43;;;;;;;;;4.25;4.00;;;;;12.25;100.00;101809.00;5013216;28;45494;-70
2022/09/18 04:20:09;;;;;;;;;6.00;3.50;;;;;12.25;100.00;101809.94;5009985;28;45813;-71
2022/09/18 04:22:34;;;;;;;;;3.00;2.25;;;;;12.25;100.00;101820.50;5005570;28;54835;-71
2022/09/18 04:25:00;;;;;;;;;4.50;4.00;;;;;12.21;100.00;101809.81;5005924;28;45776;-71
2022/09/18 04:27:25;;;;;;;;;5.00;3.00;;;;;12.20;100.00;101813.34;5026297;28;45870;-70
2022/09/18 04:29:51;;;;;;;;;5.00;5.00;;;;;12.17;100.00;101797.38;5003373;28;45590;-71
2022/09/18 04:32:16;;;;;;;;;5.00;3.00;;;;;12.20;100.00;101805.41;5015682;28;59063;-73
2022/09/18 04:34:42;;;;;;;;;3.00;3.00;;;;;12.16;100.00;101806.19;5014501;28;60768;-71
2022/09/18 04:37:08;;;;;;;;;3.75;2.50;;;;;12.16;100.00;101816.78;5017523;28;45970;-71
2022/09/18 04:39:34;;;;;;;;;4.50;3.75;;;;;12.13;100.00;101814.94;5008846;28;45807;-71
2022/09/18 04:42:00;;;;;;;;;2.25;2.25;;;;;12.14;100.00;101818.50;4998801;28;45943;-71
2022/09/18 04:44:25;;;;;;;;;4.50;3.50;;;;;12.13;100.00;101819.34;5013266;28;45620;-71
2022/09/18 04:46:51;;;;;;;;;5.75;2.25;;;;;12.12;100.00;101822.88;5014256;28;45455;-71
2022/09/18 04:49:17;;;;;;;;;3.00;3.00;;;;;12.07;100.00;101810.44;5003117;28;46149;-73
2022/09/18 04:51:42;;;;;;;;;6.00;4.00;;;;;12.07;100.00;101813.06;5009543;28;46003;-72
2022/09/18 04:54:08;;;;;;;;;4.50;3.00;;;;;12.08;100.00;101811.31;5009365;28;46671;-71
2022/09/18 04:56:34;;;;;;;;;5.00;4.25;;;;;12.05;100.00;101813.91;5009928;28;45477;-72
2022/09/18 04:58:59;;;;;;;;;3.00;3.00;;;;;12.03;100.00;101808.56;4991314;28;45944;-74
2022/09/18 05:01:24;;;;;;;;;3.75;3.25;;;;;12.06;100.00;101821.00;4999592;28;46243;-70
2022/09/18 05:03:50;;;;;;;;;4.00;3.00;;;;;12.05;100.00;101827.16;4999540;28;66638;-71
2022/09/18 05:06:15;;;;;;;;;4.00;2.25;;;;;12.04;100.00;101836.84;5011394;28;45397;-70
2022/09/18 05:08:40;;;;;;;;;3.00;3.00;;;;;11.97;100.00;101820.78;4992898;28;45814;-73
2022/09/18 05:11:06;;;;;;;;;5.00;4.00;;;;;12.01;100.00;101828.84;4995155;28;45574;-71
2022/09/18 05:13:31;;;;;;;;;3.50;3.00;;;;;12.02;100.00;101835.00;4998734;28;46032;-70
2022/09/18 05:15:57;;;;;;;;;2.75;2.00;;;;;11.98;100.00;101822.56;4994912;28;65231;-71
2022/09/18 05:18:22;;;;;;;;;8.50;3.25;;;;;12.01;100.00;101830.59;5010863;28;45589;-70
2022/09/18 05:20:48;;;;;;;;;4.50;4.00;;;;;11.96;100.00;101819.91;5011310;28;45746;-71
2022/09/18 05:23:13;;;;;;;;;3.50;3.50;;;;;11.97;100.00;101837.56;5006683;28;46508;-72
2022/09/18 05:25:39;;;;;;;;;3.75;3.75;;;;;11.95;100.00;101833.09;4993231;28;45948;-72
2022/09/18 05:28:04;;;;;;;;;3.00;3.00;;;;;11.95;100.00;101817.22;5021418;28;60723;-69
2022/09/18 05:30:30;;;;;;;;;3.25;3.00;;;;;11.98;100.00;101830.50;5009272;28;45432;-69
2022/09/18 05:32:58;;;;;;;;;4.00;3.00;;;;;11.94;100.00;101828.69;5006003;28;45774;-71
2022/09/18 05:35:24;;;;;;;;;4.25;3.00;;;;;11.95;100.00;101834.00;5018083;28;46036;-71
2022/09/18 05:37:51;;;;;;;;;4.00;2.25;;;;;11.99;100.00;101832.31;5006852;28;45663;-69
2022/09/18 05:40:17;;;;;;;;;5.00;2.00;;;;;11.98;100.00;101838.44;5015616;28;45736;-71
2022/09/18 05:42:46;;;;;;;;;3.00;3.00;;;;;12.00;100.00;101831.47;5006508;28;45772;-69
2022/09/18 05:45:13;;;;;;;;;4.00;2.00;;;;;12.02;100.00;101835.00;5008663;28;45643;-71
2022/09/18 05:47:39;;;;;;;;;3.33;3.00;;;;;12.03;100.00;101837.69;5016071;28;46296;-69
2022/09/18 05:50:05;;;;;;;;;3.00;1.00;;;;;12.05;100.00;101832.44;5002491;28;45416;-69
2022/09/18 05:52:30;;;;;;;;;3.00;3.00;;;;;12.07;100.00;101828.94;5014102;28;46602;-70
2022/09/18 05:54:55;;;;;;;;;2.00;2.00;;;;;12.08;100.00;101824.56;5008491;28;64038;-71
2022/09/18 05:57:21;;;;;;;;;1.67;1.67;;;;;12.13;100.00;101822.88;5005818;28;60226;-72
2022/09/18 05:59:46;;;;;;;;;1.33;1.33;;;;;12.14;100.00;101823.78;5013888;28;60533;-69
2022/09/18 06:02:11;;;;;;;;;2.00;2.00;;;;;12.18;100.00;101831.81;4998021;28;61184;-71
2022/09/18 06:04:37;;;;;;;;;3.00;2.00;;;;;12.18;100.00;101834.47;5004896;28;64052;-72
2022/09/18 06:07:02;;;;;;;;;1.00;1.00;;;;;12.18;100.00;101830.94;5015527;28;46111;-69
2022/09/18 06:09:27;;;;;;;;;1.00;1.00;;;;;12.22;100.00;101841.63;5004946;28;53630;-73
2022/09/18 06:11:53;;;;;;;;;1.33;1.33;;;;;12.17;100.00;101838.00;5010893;28;62937;-69
2022/09/18 06:14:18;;;;;;;;;1.00;1.00;;;;;12.22;100.00;101836.31;5005488;28;61671;-69
2022/09/18 06:16:43;;;;;;;;;1.00;1.00;;;;;12.24;100.00;101853.13;5011156;28;45540;-69
2022/09/18 06:19:09;;;;;;;;;1.00;1.00;;;;;12.22;100.00;101843.38;5013610;28;45507;-71
2022/09/18 06:21:34;;;;;;;;;4.00;1.00;;;;;12.30;100.00;101847.06;5006876;28;46765;-72
2022/09/18 06:23:59;;;;;;;;;2.00;2.00;;;;;12.32;100.00;101848.00;5009098;28;61341;-69
2022/09/18 06:26:25;;;;;;;;;3.33;3.00;;;;;12.36;100.00;101848.94;5004448;28;45471;-69
2022/09/18 06:28:50;;;;;;;;;3.00;3.00;;;;;12.41;100.00;101853.50;5279087;22;56294;-69
2022/09/18 06:31:16;;;;;;;;;3.00;1.67;;;;;12.45;100.00;101855.31;5049748;28;61546;-72
2022/09/18 06:33:41;;;;;;;;;2.00;2.00;;;;;12.47;100.00;101850.06;5069692;27;46113;-69
2022/09/18 06:36:10;;;;;;;;;3.00;2.00;;;;;12.51;100.00;101857.19;5067631;28;60961;-70
2022/09/18 06:38:36;;;;;;;;;2.00;2.00;;;;;12.55;100.00;101859.03;5064789;27;45667;-69
2022/09/18 06:41:01;;;;;;;;;3.00;2.00;;;;;12.55;100.00;101851.09;5049274;28;46161;-69
2022/09/18 06:43:27;;;;;;;;;2.67;2.67;;;;;12.61;100.00;101855.63;5064252;27;45831;-69
2022/09/18 06:45:53;;;;;;;;;2.00;2.00;;;;;12.67;100.00;101858.38;5068891;27;45709;-71
2022/09/18 06:48:19;;;;;;;;;2.67;2.00;;;;;12.70;100.00;101853.16;5066090;27;45469;-72
2022/09/18 06:50:50;;;;;;;;;3.00;2.00;;;;;12.75;100.00;101857.66;5060175;27;46667;-69
2022/09/18 06:53:15;;;;;;;;;2.00;2.00;;;;;12.79;100.00;101848.91;5045361;28;45461;-69
2022/09/18 06:55:41;;;;;;;;;1.00;1.00;;;;;12.81;100.00;101857.78;5065944;27;58252;-70
2022/09/18 06:58:06;;;;;;;;;4.00;2.00;;;;;12.80;100.00;101841.84;5069360;27;45537;-69
2022/09/18 07:00:32;;;;;;;;;2.00;2.00;;;;;12.87;100.00;101856.09;5067823;27;65477;-69
2022/09/18 07:02:59;;;;;;;;;1.00;1.00;;;;;12.88;100.00;101844.63;5068234;27;67299;-70
2022/09/18 07:05:29;;;;;;;;;2.00;2.00;;;;;12.91;100.00;101844.69;5067175;27;45446;-70
2022/09/18 07:07:55;;;;;;;;;3.33;2.00;;;;;12.92;100.00;101850.00;5046322;28;45529;-71
2022/09/18 07:10:21;;;;;;;;;2.00;1.25;;;;;12.98;100.00;101852.75;5040529;28;45815;-70
2022/09/18 07:12:49;;;;;;;;;2.00;2.00;;;;;13.02;100.00;101843.13;5066690;27;45726;-69
2022/09/18 07:15:16;;;;;;;;;1.67;1.67;;;;;13.00;100.00;101845.75;5068467;27;45765;-70
2022/09/18 07:17:41;;;;;;;;;2.67;2.67;;;;;13.01;100.00;101851.94;5065263;27;45466;-72
2022/09/18 07:20:08;;;;;;;;;5.33;2.00;;;;;13.01;100.00;101852.84;5068317;27;48136;-70
2022/09/18 07:22:34;;;;;;;;;2.00;2.00;;;;;13.04;100.00;101847.56;5067975;27;45509;-70
2022/09/18 07:24:59;;;;;;;;;2.00;2.00;;;;;13.11;100.00;101861.84;5067672;27;45662;-70
2022/09/18 07:27:24;;;;;;;;;4.00;2.00;;;;;13.14;100.00;101847.72;5067391;27;58229;-70
2022/09/18 07:29:50;;;;;;;;;2.00;2.00;;;;;13.17;100.00;101848.69;5065817;27;68879;-69
2022/09/18 07:32:15;;;;;;;;;6.00;2.67;;;;;13.24;100.00;101852.34;5068531;27;45382;-69
2022/09/18 07:34:40;;;;;;;;;4.00;2.00;;;;;13.29;100.00;101851.56;5060264;27;45496;-69
2022/09/18 07:37:06;;;;;;;;;2.00;2.00;;;;;13.33;100.00;101855.16;5067775;27;58052;-71
2022/09/18 07:39:31;;;;;;;;;1.33;1.33;;;;;13.38;100.00;101856.13;5050976;28;63384;-72
2022/09/18 07:41:56;;;;;;;;;2.00;2.00;;;;;13.38;100.00;101853.47;5067472;27;59713;-70
2022/09/18 07:44:22;;;;;;;;;2.00;2.00;;;;;13.43;100.00;101857.09;5067344;27;57459;-72
2022/09/18 07:46:47;;;;;;;;;3.00;2.00;;;;;13.47;100.00;101853.59;5067654;27;45747;-71
2022/09/18 07:49:12;;;;;;;;;3.00;3.00;;;;;13.45;100.00;101857.13;5059322;27;45535;-69
2022/09/18 07:51:38;;;;;;;;;1.33;1.33;;;;;13.49;100.00;101853.66;5060551;27;54873;-70
2022/09/18 07:54:03;;;;;;;;;2.00;2.00;;;;;13.49;100.00;101859.84;5056787;27;61050;-69
2022/09/18 07:56:28;;;;;;;;;2.00;2.00;;;;;13.52;100.00;101858.97;5058431;27;45523;-69
2022/09/18 07:58:54;;;;;;;;;2.00;2.00;;;;;13.53;100.00;101861.69;5060320;27;66642;-70
2022/09/18 08:01:19;;;;;;;;;4.00;2.00;;;;;13.55;100.00;101864.34;5061632;27;62785;-69
2022/09/18 08:03:44;;;;;;;;;1.33;1.33;;;;;13.54;100.00;101858.16;5068378;27;64478;-69
2022/09/18 08:06:10;;;;;;;;;1.00;1.00;;;;;13.58;100.00;101865.31;5063213;27;45638;-69
2022/09/18 08:08:36;;;;;;;;;3.00;2.00;;;;;13.64;100.00;101864.50;5057090;28;45671;-69
2022/09/18 08:11:02;;;;;;;;;3.00;1.00;;;;;13.66;100.00;101867.16;5069134;27;63408;-69
2022/09/18 08:13:27;;;;;;;;;4.67;3.00;;;;;13.70;100.00;101866.34;5049637;28;45750;-71
2022/09/18 08:15:52;;;;;;;;;2.33;2.33;;;;;13.72;100.00;101865.50;5045056;28;51852;-69
2022/09/18 08:18:19;;;;;;;;;2.00;2.00;;;;;13.78;100.00;101870.88;5069001;27;66120;-68
2022/09/18 08:20:45;;;;;;;;;3.00;2.00;;;;;13.82;100.00;101863.88;5068352;27;45530;-69
2022/09/18 08:23:11;;;;;;;;;2.33;2.33;;;;;13.82;100.00;101867.41;5039725;28;52416;-69
2022/09/18 08:25:37;;;;;;;;;3.00;3.00;;;;;13.84;100.00;101860.34;5047291;28;45497;-69
2022/09/18 08:28:04;;;;;;;;;2.00;2.00;;;;;13.93;100.00;101867.56;5034416;28;45814;-70
2022/09/18 08:30:30;;;;;;;;;2.00;2.00;;;;;13.98;100.00;101870.28;5044449;28;45863;-71
2022/09/18 08:33:03;;;;;;;;;2.67;2.00;;;;;14.05;100.00;101864.16;5062473;28;45864;-69
2022/09/18 08:35:29;;;;;;;;;2.00;2.00;;;;;14.09;100.00;101866.91;5065268;27;45492;-71
2022/09/18 08:37:55;;;;;;;;;5.33;2.33;;;;;14.15;100.00;101872.28;5052158;27;45688;-69
2022/09/18 08:40:24;;;;;;;;;2.00;1.00;;;;;14.19;100.00;101865.25;5071373;27;45555;-69
2022/09/18 08:43:31;;;;;;;;;4.00;3.00;;;;;14.24;100.00;101858.22;5052148;27;45517;-70
2022/09/18 08:46:01;;;;;;;;;2.67;2.67;;;;;14.30;100.00;101850.34;5034313;28;45502;-71
2022/09/18 08:48:30;;;;;;;;;2.33;2.33;;;;;14.35;100.00;101850.38;5033711;28;46648;-69
2022/09/18 08:51:00;;;;;;;;;1.00;1.00;;;;;14.49;100.00;101858.53;5047315;28;45551;-69
2022/09/18 08:53:32;;;;;;;;;2.00;2.00;;;;;14.51;100.00;101857.69;5061846;27;45555;-69
2022/09/18 08:55:59;;;;;;;;;1.67;1.67;;;;;14.61;100.00;101867.56;5036466;28;45835;-72
2022/09/18 08:58:32;;;;;;;;;1.67;1.67;;;;;14.67;100.00;101864.97;5048004;28;46966;-72
2022/09/18 09:01:02;;;;;;;;;2.00;2.00;;;;;14.75;100.00;101864.16;5065333;27;45481;-72
2022/09/18 09:03:45;;;;;;;;;1.00;1.00;;;;;14.81;100.00;101869.56;5052043;27;45516;-70
2022/09/18 09:06:29;;;;;;;;;3.00;2.00;;;;;14.87;100.00;101862.53;5070557;27;45370;-70
2022/09/18 09:09:20;;;;;;;;;1.33;1.33;;;;;14.93;100.00;101859.03;5069048;27;45547;-71
2022/09/18 09:12:07;;;;;;;;;1.67;1.00;;;;;15.00;100.00;101862.63;5068144;27;45435;-70
2022/09/18 09:14:57;;;;;;;;;2.00;2.00;;;;;15.05;100.00;101856.47;5065273;27;45574;-71
2022/09/18 09:17:46;;;;;;;;;3.00;1.33;;;;;15.12;100.00;101854.75;5070306;27;45528;-70
2022/09/18 09:20:32;;;;;;;;;1.67;1.67;;;;;15.18;100.00;101850.41;5051510;27;45887;-69
2022/09/18 09:23:02;;;;;;;;;2.00;2.00;;;;;15.25;100.00;101842.47;5052042;28;45509;-70
2022/09/18 09:25:31;;;;;;;;;1.00;1.00;;;;;15.33;100.00;101841.63;5069694;27;45509;-69
2022/09/18 09:28:04;;;;;;;;;1.33;1.33;;;;;15.40;100.00;101846.13;5070238;27;46749;-69
2022/09/18 09:30:32;;;;;;;;;1.00;1.00;;;;;15.46;100.00;101835.53;5050408;28;45891;-68
2022/09/18 09:33:23;;;;;;;;;1.00;1.00;;;;;15.53;100.00;101838.22;5050311;28;54028;-70
2022/09/18 09:35:53;;;;;;;;;3.67;1.00;;;;;15.60;100.00;101834.72;5043005;28;45883;-70
2022/09/18 09:38:40;;;;;;;;;1.67;1.67;;;;;15.74;100.00;101840.16;5043917;28;45561;-71
2022/09/18 09:41:33;;;;;;;;;1.67;1.67;;;;;15.83;100.00;101832.25;5060300;27;46687;-69
2022/09/18 09:44:03;;;;;;;;;1.00;1.00;;;;;15.89;100.00;101838.47;5053820;27;45558;-71
2022/09/18 09:46:41;;;;;;;;;2.67;1.33;;;;;15.97;100.00;101834.06;5043151;28;45623;-69
2022/09/18 09:49:14;;;;;;;;;2.33;1.00;;;;;16.02;100.00;101820.78;5060921;28;47015;-71
2022/09/18 09:52:23;;;;;;;;;2.00;1.00;;;;;16.12;100.00;101837.69;5040207;28;46987;-71
2022/09/18 09:54:58;;;;;;;;;1.00;1.00;;;;;16.16;100.00;101834.16;4968115;28;45923;-69
2022/09/18 09:57:59;;;;;;;;;1.33;1.33;;;;;16.22;100.00;101835.06;4956821;28;45615;-69
2022/09/18 10:00:25;;;;;;;;;1.00;1.00;;;;;16.32;100.00;101838.66;5041762;28;45573;-70
2022/09/18 10:03:06;;;;;;;;;1.00;1.00;;;;;16.40;100.00;101834.22;5050011;28;46396;-70
2022/09/18 10:05:48;;;;;;;;;1.00;1.00;;;;;16.48;100.00;101844.94;5067174;27;45865;-72
2022/09/18 10:08:22;;;;;;;;;2.00;2.00;;;;;16.52;100.00;101835.19;5053981;28;45600;-70
2022/09/18 10:10:53;;;;;;;;;1.00;1.00;;;;;16.55;100.00;101836.06;5041462;27;45660;-69
2022/09/18 10:13:24;;;;;;;;;1.00;1.00;;;;;16.63;98.86;101834.31;5045618;28;45972;-69
2022/09/18 10:15:54;;;;;;;;;1.00;1.00;;;;;16.67;98.85;101828.09;5032734;28;45604;-68
2022/09/18 10:18:28;;;;;;;;;0.00;0.00;;;;;16.72;98.49;101825.44;5039633;28;45659;-69
2022/09/18 10:20:58;;;;;;;;;1.00;1.00;;;;;16.81;97.65;101830.81;5059150;27;45431;-69
2022/09/18 10:23:37;;;;;;;;;1.00;1.00;;;;;16.84;94.34;101816.59;5045798;27;46854;-69
2022/09/18 10:26:03;;;;;;;;;1.00;1.00;;;;;16.93;93.85;101812.13;5052588;28;45696;-70
2022/09/18 10:28:29;;;;;;;;;0.67;0.67;;;;;16.99;94.06;101808.56;5068391;27;46405;-68
2022/09/18 10:31:03;;;;;;;;;0.00;0.00;;;;;17.03;93.78;101803.25;5067439;27;45896;-70
2022/09/18 10:33:33;;;;;;;;;1.00;1.00;;;;;17.14;93.82;101802.34;5060635;27;46788;-70
2022/09/18 10:36:21;;;;;;;;;2.00;1.00;;;;;17.18;92.95;101794.34;5068765;27;45469;-69
2022/09/18 10:38:47;;;;;;;;;1.00;1.00;;;;;17.31;91.69;101800.59;5067074;27;45486;-69
2022/09/18 10:41:28;;;;;;;;;0.67;0.67;;;;;17.34;90.04;101781.00;5066729;27;45536;-70
2022/09/18 10:44:03;;;;;;;;;1.00;1.00;;;;;17.50;89.70;101794.31;5057464;27;46743;-70
2022/09/18 10:46:31;;;;;;;;;1.00;1.00;;;;;17.58;89.95;101796.97;5059100;27;45560;-71
2022/09/18 10:49:00;;;;;;;;;2.00;2.00;;;;;17.67;89.03;101790.69;5049853;28;45569;-69
2022/09/18 10:51:27;;;;;;;;;1.00;1.00;;;;;17.73;89.13;101783.56;5044213;28;45746;-68
2022/09/18 10:54:21;;;;;;;;;1.33;1.33;;;;;17.92;89.44;101792.44;5067120;27;45837;-68
2022/09/18 10:56:47;;;;;;;;;3.00;1.00;;;;;18.02;90.47;101791.50;5061510;27;45530;-69
2022/09/18 10:59:28;;;;;;;;;1.00;1.00;;;;;18.14;87.76;101801.25;5065687;27;45466;-69
2022/09/18 11:01:58;;;;;;;;;1.00;1.00;;;;;18.20;86.98;101786.97;5057292;28;45683;-70
2022/09/18 11:04:23;;;;;;;;;2.00;1.00;;;;;18.28;87.23;101788.69;5067059;27;45919;-68
2022/09/18 11:06:49;;;;;;;;;1.67;1.67;;;;;18.30;86.93;101778.88;5048998;28;45528;-68
2022/09/18 11:09:18;;;;;;;;;0.33;0.33;;;;;18.36;87.65;101779.75;5043558;28;62907;-67
2022/09/18 11:11:49;;;;;;;;;2.67;1.00;;;;;18.41;85.73;101785.94;5049793;28;45871;-68
2022/09/18 11:14:16;;;;;;;;;1.33;1.33;;;;;18.51;87.35;101772.50;5050563;28;46166;-67
2022/09/18 11:16:45;;;;;;;;;1.33;1.33;;;;;18.64;85.92;101780.44;5067854;28;45469;-70
2022/09/18 11:19:11;;;;;;;;;1.00;1.00;;;;;18.67;85.54;101784.00;5054430;27;46261;-69
2022/09/18 11:21:50;;;;;;;;;1.33;1.33;;;;;18.66;84.94;101774.19;5061647;27;45534;-71
2022/09/18 11:24:33;;;;;;;;;0.33;0.33;;;;;18.65;84.32;101775.09;5039388;28;47537;-71
2022/09/18 11:27:00;;;;;;;;;1.33;1.00;;;;;18.65;84.60;101769.75;5067649;27;45465;-68
2022/09/18 11:29:38;;;;;;;;;2.00;0.67;;;;;18.76;84.07;101773.25;5066547;27;45515;-68
2022/09/18 11:32:12;;;;;;;;;0.67;0.67;;;;;18.83;82.84;101774.09;5067586;27;45687;-67